createdAt,value
2023-06-12T00:00:43.446Z,32.14
2023-06-12T00:01:43.471Z,32.17
2023-06-12T00:02:43.563Z,32.13
2023-06-12T00:03:43.556Z,32.11
2023-06-12T00:04:43.607Z,32.13
2023-06-12T00:05:43.495Z,32.15
2023-06-12T00:06:45.625Z,32.14
2023-06-12T00:07:43.604Z,32.14
2023-06-12T00:08:43.677Z,32.09
2023-06-12T00:09:43.611Z,32.09
2023-06-12T00:10:43.619Z,32.13
2023-06-12T00:11:43.644Z,32.13
2023-06-12T00:12:43.658Z,32.17
2023-06-12T00:13:43.725Z,32.10
2023-06-12T00:14:43.714Z,32.15
2023-06-12T00:15:43.671Z,32.09
2023-06-12T00:16:43.904Z,32.12
2023-06-12T00:17:43.798Z,32.08
2023-06-12T00:18:43.703Z,32.10
2023-06-12T00:19:43.702Z,32.11
2023-06-12T00:20:43.673Z,32.07
2023-06-12T00:21:43.709Z,32.08
2023-06-12T00:22:43.813Z,32.14
2023-06-12T00:23:43.840Z,32.06
2023-06-12T00:24:43.760Z,32.10
2023-06-12T00:25:43.738Z,32.08
2023-06-12T00:26:43.832Z,32.11
2023-06-12T00:27:43.755Z,32.07
2023-06-12T00:28:43.716Z,32.10
2023-06-12T00:29:43.768Z,32.05
2023-06-12T00:30:43.732Z,32.03
2023-06-12T00:31:43.784Z,32.06
2023-06-12T00:32:43.714Z,32.00
2023-06-12T00:33:43.705Z,32.07
2023-06-12T00:34:43.697Z,32.03
2023-06-12T00:35:43.687Z,32.10
2023-06-12T00:36:43.739Z,32.07
2023-06-12T00:37:43.700Z,32.03
2023-06-12T00:38:43.681Z,32.01
2023-06-12T00:39:43.678Z,32.01
2023-06-12T00:40:43.655Z,32.04
2023-06-12T00:41:43.697Z,32.04
2023-06-12T00:42:43.705Z,32.05
2023-06-12T00:43:43.651Z,32.03
2023-06-12T00:44:43.835Z,32.01
2023-06-12T00:45:43.713Z,32.00
2023-06-12T00:46:43.673Z,32.01
2023-06-12T00:47:43.752Z,32.06
2023-06-12T00:48:43.664Z,32.01
2023-06-12T00:49:43.641Z,32.00
2023-06-12T00:50:43.658Z,32.06
2023-06-12T00:51:43.706Z,32.25
2023-06-12T00:52:43.605Z,32.08
2023-06-12T00:53:43.661Z,32.05
2023-06-12T00:54:43.620Z,32.07
2023-06-12T00:55:43.627Z,32.03
2023-06-12T00:56:43.637Z,31.97
2023-06-12T00:57:43.683Z,31.99
2023-06-12T00:58:43.607Z,32.05
2023-06-12T00:59:43.637Z,32.12
2023-06-12T01:00:43.626Z,32.04
2023-06-12T01:01:43.642Z,31.98
2023-06-12T01:02:43.768Z,31.97
2023-06-12T01:03:43.631Z,31.97
2023-06-12T01:04:43.626Z,31.96
2023-06-12T01:05:43.601Z,31.99
2023-06-12T01:06:43.662Z,31.97
2023-06-12T01:07:43.683Z,31.97
2023-06-12T01:08:43.628Z,31.93
2023-06-12T01:09:43.633Z,31.93
2023-06-12T01:10:43.704Z,31.93
2023-06-12T01:11:43.649Z,31.96
2023-06-12T01:12:43.558Z,31.93
2023-06-12T01:13:43.624Z,31.98
2023-06-12T01:14:43.615Z,31.94
2023-06-12T01:15:43.630Z,31.93
2023-06-12T01:16:43.613Z,31.92
2023-06-12T01:17:43.636Z,31.89
2023-06-12T01:18:43.604Z,31.92
2023-06-12T01:19:43.602Z,31.90
2023-06-12T01:20:43.613Z,31.90
2023-06-12T01:21:43.631Z,31.96
2023-06-12T01:22:43.570Z,31.89
2023-06-12T01:23:43.608Z,31.90
2023-06-12T01:24:43.592Z,31.96
2023-06-12T01:25:43.632Z,31.96
2023-06-12T01:26:43.649Z,31.94
2023-06-12T01:27:43.641Z,31.88
2023-06-12T01:28:43.608Z,31.89
2023-06-12T01:29:43.609Z,31.89
2023-06-12T01:30:43.580Z,31.93
2023-06-12T01:31:43.695Z,31.89
2023-06-12T01:32:43.617Z,31.87
2023-06-12T01:33:43.583Z,31.94
2023-06-12T01:34:43.588Z,31.94
2023-06-12T01:35:43.608Z,31.89
2023-06-12T01:36:43.615Z,31.97
2023-06-12T01:37:43.638Z,31.90
2023-06-12T01:38:43.635Z,31.94
2023-06-12T01:39:43.642Z,31.82
2023-06-12T01:40:43.653Z,31.81
2023-06-12T01:41:43.640Z,31.87
2023-06-12T01:42:43.660Z,31.93
2023-06-12T01:43:43.662Z,31.81
2023-06-12T01:44:43.654Z,31.81
2023-06-12T01:45:43.689Z,31.86
2023-06-12T01:46:43.697Z,31.87
2023-06-12T01:47:43.803Z,31.81
2023-06-12T01:48:43.688Z,31.87
2023-06-12T01:49:43.648Z,31.82
2023-06-12T01:50:43.650Z,31.83
2023-06-12T01:51:43.649Z,31.84
2023-06-12T01:52:43.649Z,31.94
2023-06-12T01:53:43.650Z,31.90
2023-06-12T01:54:43.600Z,31.78
2023-06-12T01:55:43.702Z,31.87
2023-06-12T01:56:43.621Z,31.75
2023-06-12T01:57:43.675Z,31.86
2023-06-12T01:58:43.628Z,32.00
2023-06-12T01:59:43.697Z,31.91
2023-06-12T02:00:43.733Z,31.79
2023-06-12T02:01:43.732Z,31.79
2023-06-12T02:02:43.702Z,31.88
2023-06-12T02:03:43.706Z,31.86
2023-06-12T02:04:43.679Z,31.90
2023-06-12T02:05:43.645Z,31.85
2023-06-12T02:06:43.668Z,31.92
2023-06-12T02:07:43.651Z,31.88
2023-06-12T02:08:43.639Z,31.88
2023-06-12T02:09:43.654Z,31.84
2023-06-12T02:10:43.657Z,31.86
2023-06-12T02:11:43.657Z,31.86
2023-06-12T02:12:43.623Z,31.81
2023-06-12T02:13:43.673Z,31.81
2023-06-12T02:14:43.631Z,31.85
2023-06-12T02:15:43.706Z,31.83
2023-06-12T02:16:43.766Z,31.84
2023-06-12T02:17:43.629Z,31.88
2023-06-12T02:18:43.622Z,31.87
2023-06-12T02:19:43.661Z,31.92
2023-06-12T02:20:43.574Z,31.89
2023-06-12T02:21:43.590Z,31.95
2023-06-12T02:22:43.633Z,31.96
2023-06-12T02:23:43.633Z,31.96
2023-06-12T02:24:43.571Z,31.95
2023-06-12T02:25:43.632Z,31.98
2023-06-12T02:26:43.653Z,31.99
2023-06-12T02:27:43.627Z,32.02
2023-06-12T02:28:43.634Z,31.98
2023-06-12T02:29:43.752Z,31.95
2023-06-12T02:30:43.677Z,32.00
2023-06-12T02:31:43.724Z,32.06
2023-06-12T02:32:43.691Z,32.06
2023-06-12T02:33:43.662Z,32.07
2023-06-12T02:34:43.680Z,32.03
2023-06-12T02:35:43.685Z,32.09
2023-06-12T02:36:43.711Z,32.10
2023-06-12T02:37:43.664Z,32.06
2023-06-12T02:38:43.700Z,32.07
2023-06-12T02:39:43.677Z,32.10
2023-06-12T02:40:43.686Z,32.10
2023-06-12T02:41:43.727Z,32.10
2023-06-12T02:42:43.714Z,32.11
2023-06-12T02:43:43.740Z,32.13
2023-06-12T02:44:43.733Z,32.14
2023-06-12T02:45:43.781Z,32.13
2023-06-12T02:46:43.769Z,32.14
2023-06-12T02:47:43.789Z,32.18
2023-06-12T02:48:43.714Z,32.15
2023-06-12T02:49:43.723Z,32.17
2023-06-12T02:50:43.730Z,32.19
2023-06-12T02:51:43.743Z,32.21
2023-06-12T02:52:43.736Z,32.19
2023-06-12T02:53:43.798Z,32.23
2023-06-12T02:54:44.272Z,32.21
2023-06-12T02:55:43.741Z,32.23
2023-06-12T02:56:43.755Z,32.21
2023-06-12T02:57:43.778Z,32.22
2023-06-12T02:58:43.743Z,32.26
2023-06-12T02:59:43.711Z,32.29
2023-06-12T03:00:43.861Z,32.28
2023-06-12T03:01:43.793Z,32.23
2023-06-12T03:02:43.922Z,32.27
2023-06-12T03:03:43.797Z,32.29
2023-06-12T03:04:43.787Z,32.35
2023-06-12T03:05:43.717Z,32.29
2023-06-12T03:06:43.805Z,32.24
2023-06-12T03:07:43.792Z,32.30
2023-06-12T03:08:45.220Z,32.33
2023-06-12T03:09:43.748Z,32.31
2023-06-12T03:10:43.769Z,32.30
2023-06-12T03:11:43.774Z,32.35
2023-06-12T03:12:43.786Z,32.37
2023-06-12T03:13:43.770Z,32.31
2023-06-12T03:14:43.813Z,32.30
2023-06-12T03:15:43.816Z,32.34
2023-06-12T03:16:43.773Z,32.31
2023-06-12T03:17:43.845Z,32.33
2023-06-12T03:18:43.878Z,32.38
2023-06-12T03:19:43.761Z,32.34
2023-06-12T03:20:43.748Z,32.35
2023-06-12T03:21:43.754Z,32.40
2023-06-12T03:22:43.768Z,32.37
2023-06-12T03:23:43.934Z,32.38
2023-06-12T03:24:43.812Z,32.42
2023-06-12T03:25:43.869Z,32.37
2023-06-12T03:26:43.787Z,32.42
2023-06-12T03:27:43.810Z,32.40
2023-06-12T03:28:43.777Z,32.43
2023-06-12T03:29:43.802Z,32.42
2023-06-12T03:30:43.788Z,32.43
2023-06-12T03:31:43.870Z,32.46
2023-06-12T03:32:43.842Z,32.45
2023-06-12T03:33:43.853Z,32.49
2023-06-12T03:34:43.839Z,32.42
2023-06-12T03:35:43.803Z,32.48
2023-06-12T03:36:43.819Z,32.46
2023-06-12T03:37:43.814Z,32.51
2023-06-12T03:38:43.820Z,32.46
2023-06-12T03:39:43.838Z,32.53
2023-06-12T03:40:43.899Z,32.49
2023-06-12T03:41:43.835Z,32.53
2023-06-12T03:42:43.908Z,32.50
2023-06-12T03:43:43.855Z,32.54
2023-06-12T03:44:43.837Z,32.56
2023-06-12T03:45:43.797Z,32.52
2023-06-12T03:46:43.840Z,32.58
2023-06-12T03:47:43.863Z,32.54
2023-06-12T03:48:43.864Z,32.54
2023-06-12T03:49:43.860Z,32.57
2023-06-12T03:50:43.825Z,32.58
2023-06-12T03:51:43.826Z,32.56
2023-06-12T03:52:43.831Z,32.62
2023-06-12T03:53:43.827Z,32.57
2023-06-12T03:54:43.813Z,32.61
2023-06-12T03:55:43.791Z,32.64
2023-06-12T03:56:43.838Z,32.64
2023-06-12T03:57:43.863Z,32.65
2023-06-12T03:58:43.816Z,32.59
2023-06-12T03:59:43.828Z,32.60
2023-06-12T04:00:43.842Z,32.61
2023-06-12T04:01:43.881Z,32.65
2023-06-12T04:02:43.918Z,32.56
2023-06-12T04:03:44.043Z,32.42
2023-06-12T04:04:43.855Z,32.33
2023-06-12T04:05:43.803Z,32.30
2023-06-12T04:06:43.944Z,32.34
2023-06-12T04:07:43.827Z,32.35
2023-06-12T04:08:43.934Z,32.24
2023-06-12T04:09:43.771Z,32.30
2023-06-12T04:10:43.847Z,32.24
2023-06-12T04:11:43.791Z,32.33
2023-06-12T04:12:43.815Z,32.31
2023-06-12T04:13:43.776Z,32.29
2023-06-12T04:14:43.819Z,32.27
2023-06-12T04:15:43.822Z,32.35
2023-06-12T04:16:43.825Z,32.31
2023-06-12T04:17:43.864Z,32.28
2023-06-12T04:18:43.777Z,32.26
2023-06-12T04:19:43.793Z,32.23
2023-06-12T04:20:43.820Z,32.24
2023-06-12T04:21:43.826Z,32.35
2023-06-12T04:22:43.813Z,32.26
2023-06-12T04:23:43.853Z,32.24
2023-06-12T04:24:43.835Z,32.28
2023-06-12T04:25:43.852Z,32.32
2023-06-12T04:26:43.850Z,32.24
2023-06-12T04:27:43.877Z,32.28
2023-06-12T04:28:46.862Z,32.18
2023-06-12T04:29:43.880Z,32.20
2023-06-12T04:30:43.886Z,32.19
2023-06-12T04:31:43.956Z,32.18
2023-06-12T04:32:43.916Z,32.20
2023-06-12T04:33:43.846Z,32.24
2023-06-12T04:34:43.849Z,32.29
2023-06-12T04:35:43.876Z,32.21
2023-06-12T04:36:43.836Z,32.24
2023-06-12T04:37:43.829Z,32.24
2023-06-12T04:38:43.833Z,32.23
2023-06-12T04:39:43.873Z,32.26
2023-06-12T04:40:43.795Z,32.23
2023-06-12T04:41:43.794Z,32.30
2023-06-12T04:42:43.821Z,32.27
2023-06-12T04:43:43.770Z,32.31
2023-06-12T04:44:43.837Z,32.30
2023-06-12T04:45:43.735Z,32.37
2023-06-12T04:46:43.795Z,32.38
2023-06-12T04:47:43.760Z,32.45
2023-06-12T04:48:43.767Z,32.49
2023-06-12T04:49:43.699Z,32.46
2023-06-12T04:50:43.715Z,32.45
2023-06-12T04:51:43.724Z,32.53
2023-06-12T04:52:43.726Z,32.54
2023-06-12T04:53:43.704Z,32.52
2023-06-12T04:54:43.682Z,32.51
2023-06-12T04:55:43.923Z,32.54
2023-06-12T04:56:43.817Z,32.56
2023-06-12T04:57:43.655Z,32.53
2023-06-12T04:58:43.672Z,32.56
2023-06-12T04:59:43.684Z,32.57
2023-06-12T05:00:43.639Z,32.60
2023-06-12T05:01:43.625Z,32.64
2023-06-12T05:02:43.654Z,32.59
2023-06-12T05:03:43.654Z,32.60
2023-06-12T05:04:43.630Z,32.59
2023-06-12T05:05:43.611Z,32.59
2023-06-12T05:06:43.620Z,32.58
2023-06-12T05:07:43.568Z,32.58
2023-06-12T05:08:43.607Z,32.55
2023-06-12T05:09:43.575Z,32.53
2023-06-12T05:10:43.617Z,32.51
2023-06-12T05:11:43.594Z,32.50
2023-06-12T05:12:43.560Z,32.37
2023-06-12T05:13:43.557Z,32.46
2023-06-12T05:14:43.573Z,32.37
2023-06-12T05:15:43.581Z,32.31
2023-06-12T05:16:43.619Z,32.37
2023-06-12T05:17:43.580Z,32.31
2023-06-12T05:18:43.510Z,32.31
2023-06-12T05:19:43.530Z,32.38
2023-06-12T05:20:43.532Z,32.31
2023-06-12T05:21:43.530Z,32.42
2023-06-12T05:22:43.528Z,32.13
2023-06-12T05:23:43.526Z,31.97
2023-06-12T05:25:45.151Z,32.25
2023-06-12T05:26:45.132Z,32.24
2023-06-12T05:27:45.144Z,32.26
2023-06-12T05:28:45.134Z,32.33
2023-06-12T05:29:45.126Z,32.29
2023-06-12T05:30:45.145Z,32.37
2023-06-12T05:31:45.710Z,32.39
2023-06-12T05:32:45.137Z,32.42
2023-06-12T05:33:45.091Z,32.53
2023-06-12T05:34:45.045Z,32.61
2023-06-12T05:35:45.081Z,32.98
2023-06-12T05:36:45.052Z,33.15
2023-06-12T05:37:45.069Z,32.89
2023-06-12T05:38:45.160Z,32.65
2023-06-12T05:39:45.027Z,32.29
2023-06-12T05:40:45.039Z,32.38
2023-06-12T05:41:45.033Z,32.08
2023-06-12T05:42:45.004Z,32.09
2023-06-12T05:43:45.009Z,32.24
2023-06-12T05:44:45.004Z,32.21
2023-06-12T05:45:45.024Z,32.19
2023-06-12T05:46:45.064Z,32.26
2023-06-12T05:47:45.006Z,31.61
2023-06-12T05:48:44.988Z,31.66
2023-06-12T05:49:44.995Z,31.63
2023-06-12T05:50:44.986Z,31.75
2023-06-12T05:51:45.012Z,31.63
2023-06-12T05:52:44.963Z,31.63
2023-06-12T05:53:45.024Z,31.59
2023-06-12T05:54:45.051Z,31.59
2023-06-12T05:55:45.085Z,31.59
2023-06-12T05:56:45.146Z,31.62
2023-06-12T05:57:45.184Z,31.52
2023-06-12T05:58:45.226Z,31.47
2023-06-12T05:59:45.331Z,31.50
2023-06-12T06:00:45.373Z,31.43
2023-06-12T06:01:46.280Z,31.50
2023-06-12T06:02:45.536Z,31.50
2023-06-12T06:03:45.628Z,31.48
2023-06-12T06:04:45.659Z,31.47
2023-06-12T06:05:45.641Z,31.39
2023-06-12T06:06:45.653Z,31.53
2023-06-12T06:07:45.726Z,31.52
2023-06-12T06:08:45.797Z,31.51
2023-06-12T06:09:45.936Z,31.46
2023-06-12T06:10:45.898Z,31.51
2023-06-12T06:11:46.301Z,31.48
2023-06-12T06:12:45.993Z,31.56
2023-06-12T06:13:46.095Z,31.48
2023-06-12T06:14:46.126Z,31.51
2023-06-12T06:15:46.193Z,31.55
2023-06-12T06:16:54.762Z,31.57
2023-06-12T06:17:47.334Z,31.56
2023-06-12T06:18:46.221Z,31.50
2023-06-12T06:19:46.303Z,31.56
2023-06-12T06:20:46.198Z,31.58
2023-06-12T06:21:46.208Z,31.51
2023-06-12T06:22:46.202Z,31.47
2023-06-12T06:23:46.219Z,31.51
2023-06-12T06:24:46.184Z,31.50
2023-06-12T06:25:46.219Z,31.57
2023-06-12T06:26:46.233Z,31.58
2023-06-12T06:27:46.393Z,31.65
2023-06-12T06:28:55.984Z,31.67
2023-06-12T06:29:47.343Z,31.67
2023-06-12T06:30:46.310Z,31.61
2023-06-12T06:31:46.348Z,31.65
2023-06-12T06:32:46.370Z,31.61
2023-06-12T06:33:46.330Z,31.56
2023-06-12T06:34:46.320Z,31.40
2023-06-12T06:35:46.274Z,31.28
2023-06-12T06:36:46.348Z,31.23
2023-06-12T06:37:46.305Z,31.41
2023-06-12T06:38:46.301Z,31.23
2023-06-12T06:39:46.385Z,31.08
2023-06-12T06:40:46.382Z,31.00
2023-06-12T06:41:46.543Z,31.06
2023-06-12T06:42:46.506Z,31.18
2023-06-12T06:43:46.536Z,31.26
2023-06-12T06:44:46.608Z,31.19
2023-06-12T06:45:46.644Z,31.22
2023-06-12T06:46:46.618Z,31.32
2023-06-12T06:47:46.623Z,31.30
2023-06-12T06:48:46.817Z,31.24
2023-06-12T06:49:46.549Z,31.34
2023-06-12T06:50:46.550Z,31.32
2023-06-12T06:51:46.599Z,31.45
2023-06-12T06:52:46.575Z,31.49
2023-06-12T06:53:46.594Z,31.38
2023-06-12T06:54:46.791Z,31.47
2023-06-12T06:55:46.584Z,31.45
2023-06-12T06:56:46.556Z,31.51
2023-06-12T06:57:46.543Z,31.35
2023-06-12T06:58:46.623Z,31.39
2023-06-12T06:59:46.524Z,31.39
2023-06-12T07:00:46.557Z,31.52
2023-06-12T07:01:46.586Z,31.28
2023-06-12T07:02:46.845Z,31.27
2023-06-12T07:03:46.548Z,31.24
2023-06-12T07:04:46.534Z,31.20
2023-06-12T07:05:46.524Z,31.29
2023-06-12T07:06:46.538Z,31.33
2023-06-12T07:08:00.424Z,31.49
2023-06-12T07:08:47.689Z,31.77
2023-06-12T07:09:46.635Z,31.67
2023-06-12T07:10:46.522Z,31.50
2023-06-12T07:11:46.504Z,31.44
2023-06-12T07:12:46.500Z,31.57
2023-06-12T07:13:46.868Z,31.61
2023-06-12T07:14:46.604Z,31.52
2023-06-12T07:15:46.641Z,31.45
2023-06-12T07:16:46.531Z,31.23
2023-06-12T07:17:46.724Z,31.26
2023-06-12T07:18:46.666Z,31.18
2023-06-12T07:19:46.697Z,31.40
2023-06-12T07:20:46.831Z,31.37
2023-06-12T07:21:46.851Z,31.33
2023-06-12T07:22:46.936Z,31.33
2023-06-12T07:23:46.965Z,31.29
2023-06-12T07:24:47.441Z,31.27
2023-06-12T07:25:47.364Z,31.15
2023-06-12T07:26:47.101Z,31.21
2023-06-12T07:27:47.163Z,31.21
2023-06-12T07:28:47.227Z,31.01
2023-06-12T07:29:48.270Z,31.03
2023-06-12T07:30:47.354Z,30.90
2023-06-12T07:31:47.426Z,30.77
2023-06-12T07:32:47.504Z,32.12
2023-06-12T07:33:47.529Z,32.10
2023-06-12T07:34:47.522Z,31.97
2023-06-12T07:35:47.678Z,31.68
2023-06-12T07:36:47.821Z,31.46
2023-06-12T07:37:47.666Z,30.82
2023-06-12T07:38:47.774Z,30.68
2023-06-12T07:39:47.906Z,30.90
2023-06-12T07:40:47.825Z,30.71
2023-06-12T07:41:47.904Z,30.75
2023-06-12T07:42:48.357Z,30.83
2023-06-12T07:43:47.993Z,30.75
2023-06-12T07:44:48.022Z,30.77
2023-06-12T07:45:48.151Z,30.75
2023-06-12T07:46:48.178Z,30.82
2023-06-12T07:47:48.151Z,30.81
2023-06-12T07:48:48.237Z,30.80
2023-06-12T07:49:48.229Z,30.80
2023-06-12T07:50:48.285Z,30.82
2023-06-12T07:51:48.376Z,30.81
2023-06-12T07:52:48.391Z,30.85
2023-06-12T07:53:48.394Z,30.93
2023-06-12T07:54:48.473Z,30.90
2023-06-12T07:55:48.477Z,30.91
2023-06-12T07:56:48.551Z,30.96
2023-06-12T07:57:48.618Z,30.86
2023-06-12T07:58:48.631Z,30.94
2023-06-12T07:59:50.504Z,30.97
2023-06-12T08:00:48.652Z,31.05
2023-06-12T08:01:48.753Z,31.07
2023-06-12T08:02:48.746Z,31.03
2023-06-12T08:03:48.747Z,31.03
2023-06-12T08:04:48.618Z,31.06
2023-06-12T08:05:48.719Z,31.11
2023-06-12T08:06:48.756Z,31.02
2023-06-12T08:07:48.609Z,30.94
2023-06-12T08:08:48.879Z,30.96
2023-06-12T08:09:48.581Z,30.92
2023-06-12T08:10:48.636Z,30.89
2023-06-12T08:11:48.621Z,30.91
2023-06-12T08:12:48.683Z,30.93
2023-06-12T08:13:48.574Z,30.92
2023-06-12T08:14:48.578Z,30.91
2023-06-12T08:15:48.564Z,30.93
2023-06-12T08:16:48.566Z,30.90
2023-06-12T08:17:48.638Z,30.90
2023-06-12T08:18:48.518Z,30.86
2023-06-12T08:19:48.516Z,30.86
2023-06-12T08:20:48.616Z,30.94
2023-06-12T08:21:48.536Z,30.91
2023-06-12T08:22:48.511Z,30.97
2023-06-12T08:23:48.576Z,30.91
2023-06-12T08:24:48.560Z,30.90
2023-06-12T08:25:48.541Z,30.86
2023-06-12T08:26:48.509Z,31.31
2023-06-12T08:27:48.861Z,31.55
2023-06-12T08:28:48.515Z,31.52
2023-06-12T08:29:48.460Z,31.58
2023-06-12T08:30:48.561Z,31.24
2023-06-12T08:31:48.458Z,31.15
2023-06-12T08:32:48.459Z,31.02
2023-06-12T08:33:48.455Z,30.97
2023-06-12T08:34:48.458Z,31.04
2023-06-12T08:35:48.479Z,31.03
2023-06-12T08:36:48.434Z,30.91
2023-06-12T08:37:48.431Z,30.88
2023-06-12T08:38:48.511Z,30.81
2023-06-12T08:39:48.392Z,30.67
2023-06-12T08:40:48.453Z,30.76
2023-06-12T08:41:48.341Z,30.81
2023-06-12T08:42:48.433Z,30.66
2023-06-12T08:43:48.386Z,30.72
2023-06-12T08:44:48.404Z,30.77
2023-06-12T08:45:48.351Z,30.26
2023-06-12T08:46:48.462Z,30.06
2023-06-12T08:47:48.396Z,30.26
2023-06-12T08:48:48.351Z,30.29
2023-06-12T08:49:48.360Z,30.32
2023-06-12T08:50:48.333Z,30.37
2023-06-12T08:51:48.326Z,30.39
2023-06-12T08:52:48.504Z,30.48
2023-06-12T08:53:48.378Z,30.40
2023-06-12T08:54:48.286Z,30.43
2023-06-12T08:55:48.296Z,30.54
2023-06-12T08:56:48.398Z,30.44
2023-06-12T08:57:48.302Z,30.46
2023-06-12T08:58:48.255Z,30.48
2023-06-12T08:59:48.256Z,30.51
2023-06-12T09:00:48.253Z,30.45
2023-06-12T09:01:59.818Z,30.45
2023-06-12T09:02:49.485Z,30.54
2023-06-12T09:03:48.375Z,30.61
2023-06-12T09:04:48.429Z,30.58
2023-06-12T09:05:48.395Z,30.55
2023-06-12T09:06:48.215Z,30.50
2023-06-12T09:07:48.202Z,30.53
2023-06-12T09:08:48.179Z,30.50
2023-06-12T09:09:48.173Z,30.46
2023-06-12T09:10:48.183Z,30.44
2023-06-12T09:11:48.165Z,30.44
2023-06-12T09:12:48.205Z,30.46
2023-06-12T09:13:48.177Z,30.46
2023-06-12T09:14:48.150Z,30.40
2023-06-12T09:15:48.195Z,30.30
2023-06-12T09:16:48.237Z,30.27
2023-06-12T09:17:48.188Z,30.22
2023-06-12T09:18:48.156Z,30.07
2023-06-12T09:19:48.168Z,30.10
2023-06-12T09:20:48.173Z,30.14
2023-06-12T09:21:48.183Z,30.04
2023-06-12T09:22:48.173Z,30.04
2023-06-12T09:23:48.194Z,30.03
2023-06-12T09:24:48.174Z,30.10
2023-06-12T09:26:13.098Z,30.15
2023-06-12T09:26:49.102Z,30.07
2023-06-12T09:27:48.432Z,30.06
2023-06-12T09:28:48.915Z,29.99
2023-06-12T09:29:48.086Z,29.64
2023-06-12T09:30:48.082Z,29.39
2023-06-12T09:31:48.454Z,29.30
2023-06-12T09:32:48.154Z,29.44
2023-06-12T09:33:48.196Z,29.31
2023-06-12T09:34:48.095Z,29.23
2023-06-12T09:35:48.079Z,29.40
2023-06-12T09:36:48.027Z,29.51
2023-06-12T09:37:48.437Z,29.40
2023-06-12T09:38:47.993Z,29.01
2023-06-12T09:39:47.984Z,28.96
2023-06-12T09:40:48.035Z,29.06
2023-06-12T09:41:48.012Z,29.13
2023-06-12T09:42:48.026Z,29.09
2023-06-12T09:43:48.052Z,29.08
2023-06-12T09:44:48.037Z,29.13
2023-06-12T09:45:48.008Z,29.04
2023-06-12T09:46:48.204Z,29.35
2023-06-12T09:47:48.153Z,29.19
2023-06-12T09:48:48.137Z,29.24
2023-06-12T09:49:48.131Z,29.50
2023-06-12T09:50:48.141Z,29.17
2023-06-12T09:51:48.132Z,29.38
2023-06-12T09:52:48.211Z,29.55
2023-06-12T09:53:48.415Z,29.28
2023-06-12T09:54:48.155Z,29.42
2023-06-12T09:55:48.208Z,29.58
2023-06-12T09:56:48.220Z,29.47
2023-06-12T09:57:48.236Z,29.56
2023-06-12T09:58:48.243Z,29.59
2023-06-12T09:59:48.246Z,29.63
2023-06-12T10:00:48.370Z,29.61
2023-06-12T10:01:48.315Z,29.50
2023-06-12T10:02:48.330Z,29.58
2023-06-12T10:03:48.394Z,29.51
2023-06-12T10:04:48.455Z,29.28
2023-06-12T10:05:48.319Z,29.36
2023-06-12T10:06:48.399Z,29.28
2023-06-12T10:07:48.393Z,29.17
2023-06-12T10:08:48.403Z,29.23
2023-06-12T10:09:48.451Z,29.18
2023-06-12T10:10:48.541Z,28.97
2023-06-12T10:11:48.550Z,29.11
2023-06-12T10:12:48.608Z,29.05
2023-06-12T10:13:48.592Z,29.15
2023-06-12T10:14:48.656Z,29.16
2023-06-12T10:15:48.635Z,29.13
2023-06-12T10:16:48.715Z,29.15
2023-06-12T10:17:48.715Z,29.21
2023-06-12T10:18:48.796Z,29.25
2023-06-12T10:19:48.882Z,29.20
2023-06-12T10:20:48.897Z,29.26
2023-06-12T10:21:48.862Z,29.25
2023-06-12T10:22:48.947Z,29.28
2023-06-12T10:23:49.032Z,29.25
2023-06-12T10:24:48.957Z,29.17
2023-06-12T10:25:49.031Z,29.34
2023-06-12T10:26:49.040Z,29.26
2023-06-12T10:27:49.044Z,29.13
2023-06-12T10:28:49.070Z,28.98
2023-06-12T10:29:49.109Z,29.02
2023-06-12T10:30:49.168Z,29.04
2023-06-12T10:31:49.467Z,29.30
2023-06-12T10:32:49.289Z,29.22
2023-06-12T10:33:49.303Z,29.23
2023-06-12T10:34:49.430Z,29.16
2023-06-12T10:35:49.342Z,29.01
2023-06-12T10:36:49.373Z,28.99
2023-06-12T10:37:49.429Z,28.89
2023-06-12T10:38:49.906Z,29.11
2023-06-12T10:39:49.539Z,29.24
2023-06-12T10:40:50.686Z,29.30
2023-06-12T10:41:49.566Z,29.32
2023-06-12T10:42:49.599Z,29.45
2023-06-12T10:43:59.638Z,29.25
2023-06-12T10:44:50.623Z,29.14
2023-06-12T10:45:49.648Z,29.47
2023-06-12T10:46:49.570Z,29.39
2023-06-12T10:47:49.669Z,29.50
2023-06-12T10:48:49.921Z,29.23
2023-06-12T10:49:49.637Z,29.35
2023-06-12T10:50:49.580Z,29.54
2023-06-12T10:51:49.559Z,29.47
2023-06-12T10:52:49.539Z,29.60
2023-06-12T10:53:49.555Z,29.65
2023-06-12T10:54:49.536Z,29.31
2023-06-12T10:55:49.582Z,29.24
2023-06-12T10:56:49.589Z,29.57
2023-06-12T10:57:49.543Z,29.24
2023-06-12T10:58:49.530Z,29.54
2023-06-12T10:59:49.593Z,29.46
2023-06-12T11:00:49.720Z,29.47
2023-06-12T11:01:51.467Z,29.59
2023-06-12T11:02:49.552Z,29.23
2023-06-12T11:03:49.561Z,29.34
2023-06-12T11:04:49.502Z,29.48
2023-06-12T11:05:49.492Z,29.36
2023-06-12T11:06:49.445Z,29.28
2023-06-12T11:07:51.650Z,29.06
2023-06-12T11:08:49.511Z,29.22
2023-06-12T11:09:49.452Z,29.23
2023-06-12T11:10:49.418Z,29.59
2023-06-12T11:11:49.434Z,29.43
2023-06-12T11:12:53.454Z,29.40
2023-06-12T11:13:49.487Z,29.48
2023-06-12T11:14:49.415Z,29.44
2023-06-12T11:15:49.413Z,29.61
2023-06-12T11:16:49.480Z,29.36
2023-06-12T11:17:49.489Z,29.31
2023-06-12T11:18:49.634Z,29.26
2023-06-12T11:19:49.450Z,29.25
2023-06-12T11:20:49.431Z,29.15
2023-06-12T11:21:49.416Z,29.13
2023-06-12T11:22:49.368Z,29.32
2023-06-12T11:23:49.366Z,29.41
2023-06-12T11:24:49.521Z,29.46
2023-06-12T11:25:49.399Z,29.43
2023-06-12T11:26:49.380Z,29.37
2023-06-12T11:27:49.301Z,29.43
2023-06-12T11:28:49.302Z,29.39
2023-06-12T11:30:02.392Z,29.40
2023-06-12T11:31:08.056Z,29.44
2023-06-12T11:31:50.448Z,29.48
2023-06-12T11:32:49.287Z,29.47
2023-06-12T11:33:51.437Z,29.46
2023-06-12T11:34:49.268Z,29.44
2023-06-12T11:35:49.356Z,29.48
2023-06-12T11:36:49.317Z,29.48
2023-06-12T11:39:51.006Z,29.36
2023-06-12T11:40:49.226Z,29.40
2023-06-12T11:41:49.251Z,29.39
2023-06-12T11:42:49.288Z,29.43
2023-06-12T11:43:49.211Z,29.40
2023-06-12T11:44:49.178Z,29.31
2023-06-12T11:45:49.188Z,29.28
2023-06-12T11:46:49.691Z,29.28
2023-06-12T11:49:49.192Z,29.08
2023-06-12T11:50:49.168Z,29.13
2023-06-12T11:51:49.176Z,29.12
2023-06-12T11:52:49.998Z,28.99
2023-06-12T11:53:49.166Z,29.01
2023-06-12T11:57:49.160Z,28.79
2023-06-12T11:58:49.135Z,28.78
2023-06-12T11:59:49.077Z,28.80
2023-06-12T12:00:49.088Z,28.73
2023-06-12T12:01:49.054Z,28.74
2023-06-12T12:02:49.148Z,28.77
2023-06-12T12:03:49.035Z,28.69
2023-06-12T12:04:49.169Z,28.54
2023-06-12T12:05:49.059Z,28.53
2023-06-12T12:06:49.083Z,29.29
2023-06-12T12:07:49.087Z,28.84
2023-06-12T12:08:49.039Z,29.09
2023-06-12T12:09:49.042Z,29.17
2023-06-12T12:10:49.014Z,29.16
2023-06-12T12:11:48.988Z,29.09
2023-06-12T12:12:48.991Z,29.22
2023-06-12T12:13:49.060Z,29.06
2023-06-12T12:14:48.989Z,29.10
2023-06-12T12:15:49.066Z,29.26
2023-06-12T12:16:49.003Z,29.17
2023-06-12T12:17:51.680Z,28.91
2023-06-12T12:18:49.069Z,29.00
2023-06-12T12:19:48.983Z,29.07
2023-06-12T12:20:48.968Z,29.12
2023-06-12T12:21:48.937Z,29.03
2023-06-12T12:22:48.949Z,28.90
2023-06-12T12:23:49.003Z,28.70
2023-06-12T12:24:48.945Z,28.69
2023-06-12T12:25:49.061Z,28.54
2023-06-12T12:26:48.922Z,28.56
2023-06-12T12:27:48.896Z,28.61
2023-06-12T12:28:48.930Z,28.57
2023-06-12T12:29:59.649Z,28.68
2023-06-12T12:30:49.918Z,28.55
2023-06-12T12:31:48.878Z,28.59
2023-06-12T12:32:48.944Z,28.48
2023-06-12T12:33:49.008Z,28.42
2023-06-12T12:34:48.898Z,28.35
2023-06-12T12:35:48.863Z,28.24
2023-06-12T12:36:48.906Z,28.18
2023-06-12T12:37:48.942Z,28.11
2023-06-12T12:38:48.954Z,28.23
2023-06-12T12:39:48.951Z,28.11
2023-06-12T12:40:49.064Z,28.08
2023-06-12T12:41:49.068Z,28.12
2023-06-12T12:42:49.117Z,28.19
2023-06-12T12:43:49.175Z,28.18
2023-06-12T12:44:49.215Z,28.12
2023-06-12T12:45:49.335Z,28.10
2023-06-12T12:46:49.323Z,28.12
2023-06-12T12:47:49.777Z,28.09
2023-06-12T12:48:49.571Z,28.00
2023-06-12T12:49:52.079Z,28.07
2023-06-12T12:51:06.922Z,27.85
2023-06-12T12:51:50.409Z,27.95
2023-06-12T12:52:50.547Z,28.17
2023-06-12T12:53:49.341Z,28.06
2023-06-12T12:54:49.371Z,28.20
2023-06-12T12:55:49.369Z,28.20
2023-06-12T12:56:49.435Z,28.06
2023-06-12T12:57:49.332Z,28.07
2023-06-12T12:58:49.398Z,28.23
2023-06-12T12:59:49.319Z,28.25
2023-06-12T13:00:51.342Z,28.37